sensor_id;sensor_type;location;lat;lon;timestamp;P1;durP1;ratioP1;P2;durP2;ratioP2
64875;SDS011;51369;49.862;9.908;2024-02-21T00:01:27;20.05;;;4.60;;
64875;SDS011;51369;49.862;9.908;2024-02-21T00:03:53;16.88;;;4.50;;
64875;SDS011;51369;49.862;9.908;2024-02-21T00:06:18;13.57;;;4.47;;
64875;SDS011;51369;49.862;9.908;2024-02-21T00:08:43;17.48;;;4.72;;
64875;SDS011;51369;49.862;9.908;2024-02-21T00:11:09;21.65;;;4.72;;
64875;SDS011;51369;49.862;9.908;2024-02-21T00:13:35;15.23;;;5.80;;
64875;SDS011;51369;49.862;9.908;2024-02-21T00:16:00;22.05;;;4.72;;
64875;SDS011;51369;49.862;9.908;2024-02-21T00:18:26;13.35;;;4.60;;
64875;SDS011;51369;49.862;9.908;2024-02-21T00:20:52;19.17;;;4.85;;
64875;SDS011;51369;49.862;9.908;2024-02-21T00:23:17;15.27;;;5.18;;
64875;SDS011;51369;49.862;9.908;2024-02-21T00:25:43;16.77;;;4.60;;
64875;SDS011;51369;49.862;9.908;2024-02-21T00:28:08;19.30;;;4.85;;
64875;SDS011;51369;49.862;9.908;2024-02-21T00:30:33;22.20;;;4.55;;
64875;SDS011;51369;49.862;9.908;2024-02-21T00:32:59;17.65;;;4.72;;
64875;SDS011;51369;49.862;9.908;2024-02-21T00:35:24;14.60;;;4.95;;
64875;SDS011;51369;49.862;9.908;2024-02-21T00:37:50;15.48;;;4.30;;
64875;SDS011;51369;49.862;9.908;2024-02-21T00:40:16;21.52;;;5.15;;
64875;SDS011;51369;49.862;9.908;2024-02-21T00:42:45;17.63;;;4.57;;
64875;SDS011;51369;49.862;9.908;2024-02-21T00:45:11;14.90;;;4.80;;
64875;SDS011;51369;49.862;9.908;2024-02-21T00:47:36;22.05;;;5.47;;
64875;SDS011;51369;49.862;9.908;2024-02-21T00:50:02;22.58;;;5.05;;
64875;SDS011;51369;49.862;9.908;2024-02-21T00:52:27;13.88;;;5.35;;
64875;SDS011;51369;49.862;9.908;2024-02-21T00:54:52;14.07;;;4.50;;
64875;SDS011;51369;49.862;9.908;2024-02-21T00:57:18;11.32;;;4.50;;
64875;SDS011;51369;49.862;9.908;2024-02-21T00:59:43;12.52;;;4.82;;
64875;SDS011;51369;49.862;9.908;2024-02-21T01:02:09;16.80;;;6.43;;
64875;SDS011;51369;49.862;9.908;2024-02-21T01:04:34;12.15;;;4.18;;
64875;SDS011;51369;49.862;9.908;2024-02-21T01:07:00;16.33;;;4.57;;
64875;SDS011;51369;49.862;9.908;2024-02-21T01:09:25;21.88;;;5.47;;
64875;SDS011;51369;49.862;9.908;2024-02-21T01:11:51;18.52;;;5.15;;
64875;SDS011;51369;49.862;9.908;2024-02-21T01:14:16;21.80;;;5.35;;
64875;SDS011;51369;49.862;9.908;2024-02-21T01:16:41;19.25;;;4.65;;
64875;SDS011;51369;49.862;9.908;2024-02-21T01:19:07;20.98;;;5.70;;
64875;SDS011;51369;49.862;9.908;2024-02-21T01:21:32;18.55;;;5.32;;
64875;SDS011;51369;49.862;9.908;2024-02-21T01:23:57;17.23;;;4.95;;
64875;SDS011;51369;49.862;9.908;2024-02-21T01:26:23;16.35;;;5.22;;
64875;SDS011;51369;49.862;9.908;2024-02-21T01:28:48;16.58;;;5.78;;
64875;SDS011;51369;49.862;9.908;2024-02-21T01:31:14;13.65;;;4.65;;
64875;SDS011;51369;49.862;9.908;2024-02-21T01:33:40;12.95;;;5.22;;
64875;SDS011;51369;49.862;9.908;2024-02-21T01:36:06;10.57;;;4.75;;
64875;SDS011;51369;49.862;9.908;2024-02-21T01:38:32;19.08;;;5.90;;
64875;SDS011;51369;49.862;9.908;2024-02-21T01:40:58;20.00;;;4.90;;
64875;SDS011;51369;49.862;9.908;2024-02-21T01:43:23;23.95;;;5.40;;
64875;SDS011;51369;49.862;9.908;2024-02-21T01:45:57;15.90;;;4.72;;
64875;SDS011;51369;49.862;9.908;2024-02-21T01:48:23;22.52;;;5.22;;
64875;SDS011;51369;49.862;9.908;2024-02-21T01:50:50;12.15;;;4.78;;
64875;SDS011;51369;49.862;9.908;2024-02-21T01:53:18;15.10;;;4.90;;
64875;SDS011;51369;49.862;9.908;2024-02-21T01:55:52;17.65;;;4.60;;
64875;SDS011;51369;49.862;9.908;2024-02-21T01:58:18;20.45;;;5.85;;
64875;SDS011;51369;49.862;9.908;2024-02-21T02:00:45;14.30;;;5.10;;
64875;SDS011;51369;49.862;9.908;2024-02-21T02:03:12;20.23;;;5.32;;
64875;SDS011;51369;49.862;9.908;2024-02-21T02:05:45;18.90;;;5.50;;
64875;SDS011;51369;49.862;9.908;2024-02-21T02:08:14;17.60;;;6.00;;
64875;SDS011;51369;49.862;9.908;2024-02-21T02:10:41;20.27;;;5.70;;
64875;SDS011;51369;49.862;9.908;2024-02-21T02:13:07;15.43;;;5.45;;
64875;SDS011;51369;49.862;9.908;2024-02-21T02:15:46;22.30;;;6.85;;
64875;SDS011;51369;49.862;9.908;2024-02-21T02:18:13;14.93;;;5.65;;
64875;SDS011;51369;49.862;9.908;2024-02-21T02:20:39;22.45;;;5.60;;
64875;SDS011;51369;49.862;9.908;2024-02-21T02:25:59;20.58;;;6.03;;
64875;SDS011;51369;49.862;9.908;2024-02-21T02:28:26;13.32;;;4.88;;
64875;SDS011;51369;49.862;9.908;2024-02-21T02:30:51;16.23;;;6.00;;
64875;SDS011;51369;49.862;9.908;2024-02-21T02:33:17;16.65;;;5.88;;
64875;SDS011;51369;49.862;9.908;2024-02-21T02:35:43;19.88;;;6.10;;
64875;SDS011;51369;49.862;9.908;2024-02-21T02:38:09;18.70;;;6.95;;
64875;SDS011;51369;49.862;9.908;2024-02-21T02:40:35;22.13;;;6.57;;
64875;SDS011;51369;49.862;9.908;2024-02-21T02:43:00;27.45;;;6.93;;
64875;SDS011;51369;49.862;9.908;2024-02-21T02:45:26;20.30;;;6.45;;
64875;SDS011;51369;49.862;9.908;2024-02-21T02:47:52;18.73;;;6.55;;
64875;SDS011;51369;49.862;9.908;2024-02-21T02:50:19;13.73;;;5.93;;
64875;SDS011;51369;49.862;9.908;2024-02-21T02:52:45;18.50;;;6.13;;
64875;SDS011;51369;49.862;9.908;2024-02-21T02:55:10;15.23;;;5.88;;
64875;SDS011;51369;49.862;9.908;2024-02-21T02:57:35;15.35;;;6.05;;
64875;SDS011;51369;49.862;9.908;2024-02-21T03:00:01;19.73;;;6.57;;
64875;SDS011;51369;49.862;9.908;2024-02-21T03:02:26;28.70;;;6.13;;
64875;SDS011;51369;49.862;9.908;2024-02-21T03:04:51;22.13;;;6.10;;
64875;SDS011;51369;49.862;9.908;2024-02-21T03:07:17;20.30;;;7.80;;
64875;SDS011;51369;49.862;9.908;2024-02-21T03:09:42;19.20;;;6.65;;
64875;SDS011;51369;49.862;9.908;2024-02-21T03:12:08;21.02;;;6.22;;
64875;SDS011;51369;49.862;9.908;2024-02-21T03:14:35;15.20;;;6.45;;
64875;SDS011;51369;49.862;9.908;2024-02-21T03:17:00;16.70;;;6.22;;
64875;SDS011;51369;49.862;9.908;2024-02-21T03:19:27;17.85;;;5.63;;
64875;SDS011;51369;49.862;9.908;2024-02-21T03:21:53;27.48;;;7.28;;
64875;SDS011;51369;49.862;9.908;2024-02-21T03:24:19;12.90;;;6.75;;
64875;SDS011;51369;49.862;9.908;2024-02-21T03:26:45;24.55;;;7.25;;
64875;SDS011;51369;49.862;9.908;2024-02-21T03:29:13;18.30;;;6.03;;
64875;SDS011;51369;49.862;9.908;2024-02-21T03:31:40;17.90;;;6.10;;
64875;SDS011;51369;49.862;9.908;2024-02-21T03:34:05;26.33;;;6.80;;
64875;SDS011;51369;49.862;9.908;2024-02-21T03:36:31;17.90;;;6.13;;
64875;SDS011;51369;49.862;9.908;2024-02-21T03:38:56;15.70;;;6.70;;
64875;SDS011;51369;49.862;9.908;2024-02-21T03:41:22;19.35;;;6.60;;
64875;SDS011;51369;49.862;9.908;2024-02-21T03:43:47;21.17;;;6.88;;
64875;SDS011;51369;49.862;9.908;2024-02-21T03:46:13;17.52;;;6.25;;
64875;SDS011;51369;49.862;9.908;2024-02-21T03:48:40;18.60;;;6.35;;
64875;SDS011;51369;49.862;9.908;2024-02-21T03:51:05;25.55;;;6.53;;
64875;SDS011;51369;49.862;9.908;2024-02-21T03:53:31;16.92;;;6.18;;
64875;SDS011;51369;49.862;9.908;2024-02-21T03:55:57;21.08;;;7.05;;
64875;SDS011;51369;49.862;9.908;2024-02-21T03:58:27;20.33;;;6.20;;
64875;SDS011;51369;49.862;9.908;2024-02-21T04:00:53;20.33;;;7.15;;
64875;SDS011;51369;49.862;9.908;2024-02-21T04:03:18;20.55;;;6.55;;
64875;SDS011;51369;49.862;9.908;2024-02-21T04:05:43;18.63;;;6.80;;
64875;SDS011;51369;49.862;9.908;2024-02-21T04:08:09;16.70;;;6.28;;
64875;SDS011;51369;49.862;9.908;2024-02-21T04:10:34;24.63;;;6.57;;
64875;SDS011;51369;49.862;9.908;2024-02-21T04:13:00;15.70;;;6.32;;
64875;SDS011;51369;49.862;9.908;2024-02-21T04:15:25;20.27;;;6.72;;
64875;SDS011;51369;49.862;9.908;2024-02-21T04:17:51;20.13;;;7.00;;
64875;SDS011;51369;49.862;9.908;2024-02-21T04:20:17;24.17;;;6.63;;
64875;SDS011;51369;49.862;9.908;2024-02-21T04:22:43;24.60;;;7.85;;
64875;SDS011;51369;49.862;9.908;2024-02-21T04:25:09;24.80;;;7.97;;
64875;SDS011;51369;49.862;9.908;2024-02-21T04:27:36;22.42;;;8.52;;
64875;SDS011;51369;49.862;9.908;2024-02-21T04:30:02;24.38;;;6.90;;
64875;SDS011;51369;49.862;9.908;2024-02-21T04:32:28;19.27;;;6.88;;
64875;SDS011;51369;49.862;9.908;2024-02-21T04:34:54;17.00;;;6.63;;
64875;SDS011;51369;49.862;9.908;2024-02-21T04:37:19;24.75;;;6.72;;
64875;SDS011;51369;49.862;9.908;2024-02-21T04:39:45;18.48;;;6.72;;
64875;SDS011;51369;49.862;9.908;2024-02-21T04:42:11;15.68;;;5.90;;
64875;SDS011;51369;49.862;9.908;2024-02-21T04:44:36;21.83;;;7.40;;
64875;SDS011;51369;49.862;9.908;2024-02-21T04:47:02;20.30;;;7.25;;
64875;SDS011;51369;49.862;9.908;2024-02-21T04:49:28;22.10;;;6.05;;
64875;SDS011;51369;49.862;9.908;2024-02-21T04:51:54;25.45;;;6.55;;
64875;SDS011;51369;49.862;9.908;2024-02-21T04:54:19;19.98;;;6.75;;
64875;SDS011;51369;49.862;9.908;2024-02-21T04:56:45;27.45;;;7.07;;
64875;SDS011;51369;49.862;9.908;2024-02-21T04:59:10;20.88;;;7.25;;
64875;SDS011;51369;49.862;9.908;2024-02-21T05:01:36;21.80;;;7.78;;
64875;SDS011;51369;49.862;9.908;2024-02-21T05:04:01;22.50;;;7.25;;
64875;SDS011;51369;49.862;9.908;2024-02-21T05:06:28;23.58;;;6.80;;
64875;SDS011;51369;49.862;9.908;2024-02-21T05:08:53;29.05;;;8.45;;
64875;SDS011;51369;49.862;9.908;2024-02-21T05:11:21;19.38;;;6.90;;
64875;SDS011;51369;49.862;9.908;2024-02-21T05:13:47;24.85;;;7.72;;
64875;SDS011;51369;49.862;9.908;2024-02-21T05:16:12;18.75;;;6.88;;
64875;SDS011;51369;49.862;9.908;2024-02-21T05:18:38;23.20;;;7.68;;
64875;SDS011;51369;49.862;9.908;2024-02-21T05:21:05;25.40;;;8.18;;
64875;SDS011;51369;49.862;9.908;2024-02-21T05:23:30;23.40;;;7.85;;
64875;SDS011;51369;49.862;9.908;2024-02-21T05:25:55;21.52;;;7.93;;
64875;SDS011;51369;49.862;9.908;2024-02-21T05:28:20;26.02;;;9.43;;
64875;SDS011;51369;49.862;9.908;2024-02-21T05:30:46;20.95;;;7.35;;
64875;SDS011;51369;49.862;9.908;2024-02-21T05:33:11;23.73;;;7.38;;
64875;SDS011;51369;49.862;9.908;2024-02-21T05:35:37;25.02;;;7.53;;
64875;SDS011;51369;49.862;9.908;2024-02-21T05:38:03;23.40;;;8.18;;
64875;SDS011;51369;49.862;9.908;2024-02-21T05:40:36;22.33;;;7.47;;
64875;SDS011;51369;49.862;9.908;2024-02-21T05:43:01;24.50;;;8.10;;
64875;SDS011;51369;49.862;9.908;2024-02-21T05:45:27;16.98;;;7.63;;
64875;SDS011;51369;49.862;9.908;2024-02-21T05:47:53;24.20;;;7.65;;
64875;SDS011;51369;49.862;9.908;2024-02-21T05:50:18;25.45;;;8.13;;
64875;SDS011;51369;49.862;9.908;2024-02-21T05:52:44;20.45;;;8.63;;
64875;SDS011;51369;49.862;9.908;2024-02-21T05:55:09;18.77;;;7.68;;
64875;SDS011;51369;49.862;9.908;2024-02-21T05:57:35;23.75;;;7.35;;
64875;SDS011;51369;49.862;9.908;2024-02-21T06:00:02;18.98;;;7.68;;
64875;SDS011;51369;49.862;9.908;2024-02-21T06:02:37;21.13;;;8.52;;
64875;SDS011;51369;49.862;9.908;2024-02-21T06:05:03;22.48;;;8.25;;
64875;SDS011;51369;49.862;9.908;2024-02-21T06:07:30;24.73;;;8.07;;
64875;SDS011;51369;49.862;9.908;2024-02-21T06:09:55;29.05;;;9.02;;
64875;SDS011;51369;49.862;9.908;2024-02-21T06:12:20;19.80;;;7.85;;
64875;SDS011;51369;49.862;9.908;2024-02-21T06:14:46;21.35;;;8.05;;
64875;SDS011;51369;49.862;9.908;2024-02-21T06:17:11;21.75;;;8.23;;
64875;SDS011;51369;49.862;9.908;2024-02-21T06:19:39;22.52;;;7.82;;
64875;SDS011;51369;49.862;9.908;2024-02-21T06:22:07;18.30;;;7.85;;
64875;SDS011;51369;49.862;9.908;2024-02-21T06:24:33;19.65;;;8.15;;
64875;SDS011;51369;49.862;9.908;2024-02-21T06:26:59;24.17;;;8.77;;
64875;SDS011;51369;49.862;9.908;2024-02-21T06:29:25;19.38;;;8.02;;
64875;SDS011;51369;49.862;9.908;2024-02-21T06:31:50;26.70;;;8.57;;
64875;SDS011;51369;49.862;9.908;2024-02-21T06:34:15;26.45;;;8.93;;
64875;SDS011;51369;49.862;9.908;2024-02-21T06:36:42;19.73;;;9.40;;
64875;SDS011;51369;49.862;9.908;2024-02-21T06:39:07;27.80;;;10.32;;
64875;SDS011;51369;49.862;9.908;2024-02-21T06:41:32;27.85;;;9.82;;
64875;SDS011;51369;49.862;9.908;2024-02-21T06:43:59;20.65;;;9.07;;
64875;SDS011;51369;49.862;9.908;2024-02-21T06:46:28;24.30;;;8.90;;
64875;SDS011;51369;49.862;9.908;2024-02-21T06:48:54;22.02;;;9.23;;
64875;SDS011;51369;49.862;9.908;2024-02-21T06:51:21;22.20;;;9.25;;
64875;SDS011;51369;49.862;9.908;2024-02-21T06:53:47;23.85;;;9.93;;
64875;SDS011;51369;49.862;9.908;2024-02-21T06:56:13;24.88;;;10.10;;
64875;SDS011;51369;49.862;9.908;2024-02-21T06:58:38;31.38;;;10.68;;
64875;SDS011;51369;49.862;9.908;2024-02-21T07:01:04;25.40;;;10.10;;
64875;SDS011;51369;49.862;9.908;2024-02-21T07:03:30;16.40;;;9.27;;
64875;SDS011;51369;49.862;9.908;2024-02-21T07:05:55;23.52;;;11.00;;
64875;SDS011;51369;49.862;9.908;2024-02-21T07:08:20;24.30;;;10.27;;
64875;SDS011;51369;49.862;9.908;2024-02-21T07:10:47;28.33;;;9.98;;
64875;SDS011;51369;49.862;9.908;2024-02-21T07:13:12;26.63;;;10.50;;
64875;SDS011;51369;49.862;9.908;2024-02-21T07:15:38;28.45;;;10.15;;
64875;SDS011;51369;49.862;9.908;2024-02-21T07:18:04;26.17;;;10.80;;
64875;SDS011;51369;49.862;9.908;2024-02-21T07:20:29;27.42;;;10.50;;
64875;SDS011;51369;49.862;9.908;2024-02-21T07:22:55;26.15;;;10.70;;
64875;SDS011;51369;49.862;9.908;2024-02-21T07:25:20;24.45;;;10.35;;
64875;SDS011;51369;49.862;9.908;2024-02-21T07:27:45;24.15;;;9.55;;
64875;SDS011;51369;49.862;9.908;2024-02-21T07:30:11;21.05;;;9.85;;
64875;SDS011;51369;49.862;9.908;2024-02-21T07:32:36;24.05;;;10.73;;
64875;SDS011;51369;49.862;9.908;2024-02-21T07:35:02;22.38;;;9.82;;
64875;SDS011;51369;49.862;9.908;2024-02-21T07:37:27;22.95;;;10.45;;
64875;SDS011;51369;49.862;9.908;2024-02-21T07:39:52;29.15;;;9.52;;
64875;SDS011;51369;49.862;9.908;2024-02-21T07:42:18;20.05;;;10.18;;
64875;SDS011;51369;49.862;9.908;2024-02-21T07:44:43;22.52;;;11.27;;
64875;SDS011;51369;49.862;9.908;2024-02-21T07:47:08;29.00;;;10.48;;
64875;SDS011;51369;49.862;9.908;2024-02-21T07:49:40;24.67;;;9.80;;
64875;SDS011;51369;49.862;9.908;2024-02-21T07:52:06;27.05;;;9.25;;
64875;SDS011;51369;49.862;9.908;2024-02-21T07:54:33;19.67;;;8.73;;
64875;SDS011;51369;49.862;9.908;2024-02-21T07:56:58;22.48;;;9.30;;
64875;SDS011;51369;49.862;9.908;2024-02-21T07:59:23;24.95;;;9.27;;
64875;SDS011;51369;49.862;9.908;2024-02-21T08:01:49;24.75;;;8.85;;
64875;SDS011;51369;49.862;9.908;2024-02-21T08:04:14;30.33;;;9.38;;
64875;SDS011;51369;49.862;9.908;2024-02-21T08:06:39;24.05;;;7.75;;
64875;SDS011;51369;49.862;9.908;2024-02-21T08:09:05;21.08;;;8.68;;
64875;SDS011;51369;49.862;9.908;2024-02-21T08:11:30;20.17;;;8.10;;
64875;SDS011;51369;49.862;9.908;2024-02-21T08:13:56;24.02;;;8.32;;
64875;SDS011;51369;49.862;9.908;2024-02-21T08:16:22;20.08;;;8.43;;
64875;SDS011;51369;49.862;9.908;2024-02-21T08:18:48;23.00;;;8.70;;
64875;SDS011;51369;49.862;9.908;2024-02-21T08:21:13;18.63;;;8.57;;
64875;SDS011;51369;49.862;9.908;2024-02-21T08:23:38;29.95;;;9.68;;
64875;SDS011;51369;49.862;9.908;2024-02-21T08:26:04;23.90;;;8.40;;
64875;SDS011;51369;49.862;9.908;2024-02-21T08:28:30;29.75;;;10.40;;
64875;SDS011;51369;49.862;9.908;2024-02-21T08:30:55;28.17;;;9.40;;
64875;SDS011;51369;49.862;9.908;2024-02-21T08:33:20;27.88;;;9.77;;
64875;SDS011;51369;49.862;9.908;2024-02-21T08:35:51;20.80;;;8.38;;
64875;SDS011;51369;49.862;9.908;2024-02-21T08:38:17;21.70;;;8.32;;
64875;SDS011;51369;49.862;9.908;2024-02-21T08:40:44;16.63;;;7.03;;
64875;SDS011;51369;49.862;9.908;2024-02-21T08:43:09;19.17;;;7.82;;
64875;SDS011;51369;49.862;9.908;2024-02-21T08:45:35;19.45;;;9.07;;
64875;SDS011;51369;49.862;9.908;2024-02-21T08:48:00;32.83;;;9.13;;
64875;SDS011;51369;49.862;9.908;2024-02-21T08:50:26;16.83;;;7.90;;
64875;SDS011;51369;49.862;9.908;2024-02-21T08:52:51;20.05;;;8.27;;
64875;SDS011;51369;49.862;9.908;2024-02-21T08:55:16;22.48;;;7.72;;
64875;SDS011;51369;49.862;9.908;2024-02-21T08:57:42;21.45;;;7.63;;
64875;SDS011;51369;49.862;9.908;2024-02-21T09:00:07;23.33;;;7.60;;
64875;SDS011;51369;49.862;9.908;2024-02-21T09:02:39;17.30;;;7.80;;
64875;SDS011;51369;49.862;9.908;2024-02-21T09:05:06;17.33;;;7.20;;
64875;SDS011;51369;49.862;9.908;2024-02-21T09:07:31;16.27;;;7.65;;
64875;SDS011;51369;49.862;9.908;2024-02-21T09:09:57;18.25;;;7.70;;
64875;SDS011;51369;49.862;9.908;2024-02-21T09:12:22;18.98;;;6.57;;
64875;SDS011;51369;49.862;9.908;2024-02-21T09:14:48;17.80;;;7.03;;
64875;SDS011;51369;49.862;9.908;2024-02-21T09:17:15;19.40;;;6.63;;
64875;SDS011;51369;49.862;9.908;2024-02-21T09:19:42;19.58;;;6.85;;
64875;SDS011;51369;49.862;9.908;2024-02-21T09:22:08;19.48;;;6.10;;
64875;SDS011;51369;49.862;9.908;2024-02-21T09:24:33;18.38;;;6.18;;
64875;SDS011;51369;49.862;9.908;2024-02-21T09:26:58;20.05;;;5.70;;
64875;SDS011;51369;49.862;9.908;2024-02-21T09:29:25;20.55;;;6.63;;
64875;SDS011;51369;49.862;9.908;2024-02-21T09:31:50;19.95;;;5.80;;
64875;SDS011;51369;49.862;9.908;2024-02-21T09:34:15;20.77;;;5.90;;
64875;SDS011;51369;49.862;9.908;2024-02-21T09:36:41;14.80;;;5.00;;
64875;SDS011;51369;49.862;9.908;2024-02-21T09:39:07;15.90;;;5.65;;
64875;SDS011;51369;49.862;9.908;2024-02-21T09:41:32;16.75;;;5.28;;
64875;SDS011;51369;49.862;9.908;2024-02-21T09:46:37;12.13;;;5.00;;
64875;SDS011;51369;49.862;9.908;2024-02-21T09:51:51;16.52;;;5.95;;
64875;SDS011;51369;49.862;9.908;2024-02-21T09:54:20;18.30;;;4.22;;
64875;SDS011;51369;49.862;9.908;2024-02-21T09:56:47;16.05;;;4.85;;
64875;SDS011;51369;49.862;9.908;2024-02-21T09:59:15;25.08;;;4.45;;
64875;SDS011;51369;49.862;9.908;2024-02-21T10:01:44;11.50;;;4.15;;
64875;SDS011;51369;49.862;9.908;2024-02-21T10:04:11;12.00;;;4.85;;
64875;SDS011;51369;49.862;9.908;2024-02-21T10:06:37;13.18;;;5.25;;
64875;SDS011;51369;49.862;9.908;2024-02-21T10:09:05;18.65;;;5.32;;
64875;SDS011;51369;49.862;9.908;2024-02-21T10:11:31;14.75;;;4.80;;
64875;SDS011;51369;49.862;9.908;2024-02-21T10:14:06;13.98;;;5.55;;
64875;SDS011;51369;49.862;9.908;2024-02-21T10:16:32;16.45;;;5.43;;
64875;SDS011;51369;49.862;9.908;2024-02-21T10:18:58;18.25;;;5.18;;
64875;SDS011;51369;49.862;9.908;2024-02-21T10:21:24;15.88;;;5.22;;
64875;SDS011;51369;49.862;9.908;2024-02-21T10:23:51;10.82;;;4.32;;
64875;SDS011;51369;49.862;9.908;2024-02-21T10:26:18;16.25;;;5.40;;
64875;SDS011;51369;49.862;9.908;2024-02-21T10:28:44;20.95;;;5.55;;
64875;SDS011;51369;49.862;9.908;2024-02-21T10:31:20;18.05;;;3.70;;
64875;SDS011;51369;49.862;9.908;2024-02-21T10:34:00;9.30;;;3.78;;
64875;SDS011;51369;49.862;9.908;2024-02-21T10:36:28;10.88;;;3.90;;
64875;SDS011;51369;49.862;9.908;2024-02-21T10:38:54;15.38;;;5.05;;
64875;SDS011;51369;49.862;9.908;2024-02-21T10:41:20;11.82;;;4.45;;
64875;SDS011;51369;49.862;9.908;2024-02-21T10:43:47;17.27;;;4.47;;
64875;SDS011;51369;49.862;9.908;2024-02-21T10:46:15;13.77;;;3.53;;
64875;SDS011;51369;49.862;9.908;2024-02-21T10:48:44;12.68;;;3.90;;
64875;SDS011;51369;49.862;9.908;2024-02-21T10:51:14;12.60;;;4.40;;
64875;SDS011;51369;49.862;9.908;2024-02-21T10:53:45;12.45;;;4.25;;
64875;SDS011;51369;49.862;9.908;2024-02-21T10:58:54;12.85;;;3.60;;
64875;SDS011;51369;49.862;9.908;2024-02-21T11:01:22;11.50;;;3.33;;
64875;SDS011;51369;49.862;9.908;2024-02-21T11:03:49;11.57;;;3.70;;
64875;SDS011;51369;49.862;9.908;2024-02-21T11:06:19;13.18;;;3.70;;
64875;SDS011;51369;49.862;9.908;2024-02-21T11:08:47;13.00;;;3.22;;
64875;SDS011;51369;49.862;9.908;2024-02-21T11:11:13;11.00;;;3.80;;
64875;SDS011;51369;49.862;9.908;2024-02-21T11:13:42;11.35;;;3.58;;
64875;SDS011;51369;49.862;9.908;2024-02-21T11:16:08;11.35;;;3.40;;
64875;SDS011;51369;49.862;9.908;2024-02-21T11:18:35;12.63;;;3.95;;
64875;SDS011;51369;49.862;9.908;2024-02-21T11:21:01;9.18;;;3.63;;
64875;SDS011;51369;49.862;9.908;2024-02-21T11:23:27;21.02;;;3.95;;
64875;SDS011;51369;49.862;9.908;2024-02-21T11:26:03;10.75;;;3.63;;
64875;SDS011;51369;49.862;9.908;2024-02-21T11:28:32;10.75;;;3.17;;
64875;SDS011;51369;49.862;9.908;2024-02-21T11:31:13;17.85;;;3.97;;
64875;SDS011;51369;49.862;9.908;2024-02-21T11:33:42;13.27;;;3.57;;
64875;SDS011;51369;49.862;9.908;2024-02-21T11:36:09;11.45;;;3.05;;
64875;SDS011;51369;49.862;9.908;2024-02-21T11:38:35;10.95;;;3.33;;
64875;SDS011;51369;49.862;9.908;2024-02-21T11:41:00;10.70;;;3.47;;
64875;SDS011;51369;49.862;9.908;2024-02-21T11:43:26;10.55;;;4.13;;
64875;SDS011;51369;49.862;9.908;2024-02-21T11:45:58;17.98;;;3.65;;
64875;SDS011;51369;49.862;9.908;2024-02-21T11:48:25;13.23;;;3.55;;
64875;SDS011;51369;49.862;9.908;2024-02-21T11:50:54;14.68;;;3.72;;
64875;SDS011;51369;49.862;9.908;2024-02-21T11:53:20;11.32;;;3.33;;
64875;SDS011;51369;49.862;9.908;2024-02-21T11:55:46;12.27;;;2.95;;
64875;SDS011;51369;49.862;9.908;2024-02-21T11:58:11;10.80;;;3.38;;
64875;SDS011;51369;49.862;9.908;2024-02-21T12:00:37;10.38;;;3.58;;
64875;SDS011;51369;49.862;9.908;2024-02-21T12:03:02;15.18;;;3.33;;
64875;SDS011;51369;49.862;9.908;2024-02-21T12:05:29;8.85;;;3.15;;
64875;SDS011;51369;49.862;9.908;2024-02-21T12:07:55;9.32;;;3.13;;
64875;SDS011;51369;49.862;9.908;2024-02-21T12:10:21;9.23;;;3.28;;
64875;SDS011;51369;49.862;9.908;2024-02-21T12:12:47;9.40;;;3.15;;
64875;SDS011;51369;49.862;9.908;2024-02-21T12:15:12;9.32;;;3.25;;
64875;SDS011;51369;49.862;9.908;2024-02-21T12:17:39;11.32;;;3.17;;
64875;SDS011;51369;49.862;9.908;2024-02-21T12:20:05;14.73;;;4.03;;
64875;SDS011;51369;49.862;9.908;2024-02-21T12:22:37;11.50;;;2.80;;
64875;SDS011;51369;49.862;9.908;2024-02-21T12:25:18;11.25;;;3.53;;
64875;SDS011;51369;49.862;9.908;2024-02-21T12:27:46;10.33;;;2.90;;
64875;SDS011;51369;49.862;9.908;2024-02-21T12:30:11;9.65;;;3.15;;
64875;SDS011;51369;49.862;9.908;2024-02-21T12:32:37;9.07;;;3.17;;
64875;SDS011;51369;49.862;9.908;2024-02-21T12:35:03;8.15;;;3.20;;
64875;SDS011;51369;49.862;9.908;2024-02-21T12:37:29;7.60;;;2.88;;
64875;SDS011;51369;49.862;9.908;2024-02-21T12:39:54;11.30;;;2.97;;
64875;SDS011;51369;49.862;9.908;2024-02-21T12:42:20;13.50;;;3.50;;
64875;SDS011;51369;49.862;9.908;2024-02-21T12:44:46;15.88;;;3.38;;
64875;SDS011;51369;49.862;9.908;2024-02-21T12:47:11;9.05;;;2.67;;
64875;SDS011;51369;49.862;9.908;2024-02-21T12:49:37;13.73;;;3.28;;
64875;SDS011;51369;49.862;9.908;2024-02-21T12:52:02;12.98;;;3.83;;
64875;SDS011;51369;49.862;9.908;2024-02-21T12:54:28;13.05;;;3.42;;
64875;SDS011;51369;49.862;9.908;2024-02-21T12:56:55;10.82;;;2.60;;
64875;SDS011;51369;49.862;9.908;2024-02-21T12:59:20;8.40;;;3.00;;
64875;SDS011;51369;49.862;9.908;2024-02-21T13:01:46;11.02;;;3.05;;
64875;SDS011;51369;49.862;9.908;2024-02-21T13:04:11;11.80;;;3.17;;
64875;SDS011;51369;49.862;9.908;2024-02-21T13:06:37;10.45;;;3.30;;
64875;SDS011;51369;49.862;9.908;2024-02-21T13:09:02;13.07;;;3.58;;
64875;SDS011;51369;49.862;9.908;2024-02-21T13:11:32;11.85;;;3.05;;
64875;SDS011;51369;49.862;9.908;2024-02-21T13:13:58;8.40;;;2.53;;
64875;SDS011;51369;49.862;9.908;2024-02-21T13:16:23;11.07;;;2.83;;
64875;SDS011;51369;49.862;9.908;2024-02-21T13:18:48;9.75;;;2.67;;
64875;SDS011;51369;49.862;9.908;2024-02-21T13:21:14;9.25;;;2.70;;
64875;SDS011;51369;49.862;9.908;2024-02-21T13:23:40;9.18;;;2.55;;
64875;SDS011;51369;49.862;9.908;2024-02-21T13:26:05;8.50;;;2.60;;
64875;SDS011;51369;49.862;9.908;2024-02-21T13:28:30;9.48;;;2.60;;
64875;SDS011;51369;49.862;9.908;2024-02-21T13:30:56;6.13;;;2.00;;
64875;SDS011;51369;49.862;9.908;2024-02-21T13:33:22;9.05;;;2.67;;
64875;SDS011;51369;49.862;9.908;2024-02-21T13:35:48;9.48;;;2.78;;
64875;SDS011;51369;49.862;9.908;2024-02-21T13:38:13;9.13;;;2.60;;
64875;SDS011;51369;49.862;9.908;2024-02-21T13:40:39;11.00;;;3.30;;
64875;SDS011;51369;49.862;9.908;2024-02-21T13:43:07;14.68;;;3.13;;
64875;SDS011;51369;49.862;9.908;2024-02-21T13:45:32;7.95;;;2.60;;
64875;SDS011;51369;49.862;9.908;2024-02-21T13:47:58;10.43;;;2.85;;
64875;SDS011;51369;49.862;9.908;2024-02-21T13:50:27;8.48;;;2.70;;
64875;SDS011;51369;49.862;9.908;2024-02-21T13:52:55;5.13;;;2.03;;
64875;SDS011;51369;49.862;9.908;2024-02-21T13:55:21;10.27;;;2.72;;
64875;SDS011;51369;49.862;9.908;2024-02-21T13:57:47;6.20;;;2.35;;
64875;SDS011;51369;49.862;9.908;2024-02-21T14:00:13;10.65;;;2.47;;
64875;SDS011;51369;49.862;9.908;2024-02-21T14:02:38;9.45;;;3.72;;
64875;SDS011;51369;49.862;9.908;2024-02-21T14:05:04;8.73;;;2.50;;
64875;SDS011;51369;49.862;9.908;2024-02-21T14:07:31;7.75;;;2.40;;
64875;SDS011;51369;49.862;9.908;2024-02-21T14:09:58;7.38;;;2.67;;
64875;SDS011;51369;49.862;9.908;2024-02-21T14:12:24;8.40;;;2.85;;
64875;SDS011;51369;49.862;9.908;2024-02-21T14:14:50;7.38;;;2.80;;
64875;SDS011;51369;49.862;9.908;2024-02-21T14:17:15;10.25;;;2.75;;
64875;SDS011;51369;49.862;9.908;2024-02-21T14:19:40;10.55;;;2.40;;
64875;SDS011;51369;49.862;9.908;2024-02-21T14:22:07;8.52;;;2.15;;
64875;SDS011;51369;49.862;9.908;2024-02-21T14:24:33;7.78;;;2.63;;
64875;SDS011;51369;49.862;9.908;2024-02-21T14:26:58;8.27;;;2.13;;
64875;SDS011;51369;49.862;9.908;2024-02-21T14:29:24;9.43;;;2.50;;
64875;SDS011;51369;49.862;9.908;2024-02-21T14:31:50;10.57;;;2.10;;
64875;SDS011;51369;49.862;9.908;2024-02-21T14:34:15;9.48;;;2.53;;
64875;SDS011;51369;49.862;9.908;2024-02-21T14:36:41;9.52;;;2.50;;
64875;SDS011;51369;49.862;9.908;2024-02-21T14:39:08;16.35;;;3.08;;
64875;SDS011;51369;49.862;9.908;2024-02-21T14:41:33;10.73;;;2.92;;